Time;durP1;ratioP1;P1;durP2;ratioP2;P2;SDS_P1;SDS_P2;PMS_P1;PMS_P2;Temp;Humidity;BMP_temperature;BMP_pressure;BME280_temperature;BME280_humidity;BME280_pressure;Samples;Min_cycle;Max_cycle;Signal;HPM_P1;HPM_P2
2024/01/20 00:01:10;;;;;;;25.00;19.38;;;0.40;99.90;;;;;;5033105;28;20226;-65
2024/01/20 00:03:37;;;;;;;27.83;18.98;;;0.40;99.90;;;;;;5034133;28;20198;-63
2024/01/20 00:06:05;;;;;;;30.20;19.33;;;0.40;99.90;;;;;;5032963;28;20209;-65
2024/01/20 00:08:32;;;;;;;31.92;20.80;;;0.40;99.90;;;;;;5033175;28;20198;-64
2024/01/20 00:10:59;;;;;;;29.42;20.20;;;0.40;99.90;;;;;;5033528;28;20222;-66
2024/01/20 00:13:25;;;;;;;25.65;17.88;;;0.40;99.90;;;;;;5033420;28;20202;-66
2024/01/20 00:15:52;;;;;;;31.42;19.92;;;0.40;99.90;;;;;;5034745;28;20210;-66
2024/01/20 00:18:19;;;;;;;26.05;17.80;;;0.40;99.90;;;;;;5035919;28;20225;-65
2024/01/20 00:20:46;;;;;;;26.42;18.92;;;0.40;99.90;;;;;;5033377;28;20228;-67
2024/01/20 00:23:14;;;;;;;30.02;19.70;;;0.40;99.90;;;;;;5033374;28;20256;-66
2024/01/20 00:25:41;;;;;;;29.42;17.75;;;0.40;99.90;;;;;;5033503;28;20213;-65
2024/01/20 00:28:08;;;;;;;35.50;20.40;;;0.40;99.90;;;;;;5034327;28;20205;-66
2024/01/20 00:30:35;;;;;;;30.27;18.13;;;0.40;99.90;;;;;;5037069;28;20237;-66
2024/01/20 00:33:02;;;;;;;25.50;15.07;;;0.40;99.90;;;;;;5037463;28;20191;-68
2024/01/20 00:35:29;;;;;;;26.00;17.83;;;0.40;99.90;;;;;;5037001;28;20210;-65
2024/01/20 00:37:55;;;;;;;28.83;18.95;;;0.40;99.90;;;;;;5037276;28;20222;-65
2024/01/20 00:40:23;;;;;;;29.40;19.38;;;0.40;99.90;;;;;;5037127;28;20297;-65
2024/01/20 00:42:50;;;;;;;28.98;18.75;;;0.40;99.90;;;;;;5037008;28;20206;-64
2024/01/20 00:45:17;;;;;;;29.10;17.60;;;0.50;99.90;;;;;;5036962;28;20213;-64
2024/01/20 00:47:44;;;;;;;28.38;17.13;;;0.50;99.90;;;;;;5036878;28;20198;-64
2024/01/20 00:50:11;;;;;;;28.27;19.25;;;0.50;99.90;;;;;;5036768;28;20198;-63
2024/01/20 00:52:38;;;;;;;30.98;19.70;;;0.50;99.90;;;;;;5037404;28;20213;-65
2024/01/20 00:55:06;;;;;;;27.02;19.20;;;0.50;99.90;;;;;;5037093;28;20210;-63
2024/01/20 00:57:34;;;;;;;32.10;19.90;;;0.50;99.90;;;;;;5036590;28;20695;-66
2024/01/20 01:00:01;;;;;;;29.13;19.88;;;0.50;99.90;;;;;;5037459;28;20206;-66
2024/01/20 01:02:27;;;;;;;27.83;20.00;;;0.50;99.90;;;;;;5037602;28;20219;-64
2024/01/20 01:04:54;;;;;;;26.08;17.75;;;0.50;99.90;;;;;;5037578;28;20213;-65
2024/01/20 01:07:21;;;;;;;29.17;19.63;;;0.50;99.90;;;;;;5037478;28;20202;-64
2024/01/20 01:09:48;;;;;;;26.15;19.20;;;0.50;99.90;;;;;;5036760;28;20205;-64
2024/01/20 01:12:15;;;;;;;29.40;18.23;;;0.50;99.90;;;;;;5036315;28;20218;-65
2024/01/20 01:14:43;;;;;;;34.88;20.48;;;0.50;99.90;;;;;;5036173;28;20198;-65
2024/01/20 01:17:10;;;;;;;26.98;19.95;;;0.50;99.90;;;;;;5036476;28;20206;-65
2024/01/20 01:19:37;;;;;;;27.88;19.38;;;0.50;99.90;;;;;;5035864;28;20669;-64
2024/01/20 01:22:04;;;;;;;27.73;18.52;;;0.50;99.90;;;;;;5035907;28;20222;-65
2024/01/20 01:24:31;;;;;;;35.85;20.40;;;0.50;99.90;;;;;;5035766;28;20210;-63
2024/01/20 01:26:57;;;;;;;31.05;20.48;;;0.50;99.90;;;;;;5036196;28;20206;-64
2024/01/20 01:29:24;;;;;;;19.55;13.30;;;0.50;99.90;;;;;;5036155;28;20198;-65
2024/01/20 01:31:52;;;;;;;26.77;17.85;;;0.50;99.90;;;;;;5035331;28;20249;-65
2024/01/20 01:34:19;;;;;;;34.95;19.25;;;0.50;99.90;;;;;;5035903;28;20206;-64
2024/01/20 01:36:46;;;;;;;28.05;18.15;;;0.50;99.90;;;;;;5036325;28;20199;-65
2024/01/20 01:39:12;;;;;;;33.40;19.98;;;0.50;99.90;;;;;;5035454;28;20231;-65
2024/01/20 01:41:39;;;;;;;29.98;19.60;;;0.50;99.90;;;;;;5035521;28;20345;-65
2024/01/20 01:44:06;;;;;;;26.02;17.50;;;0.50;99.90;;;;;;5035731;28;20206;-65
2024/01/20 01:46:33;;;;;;;29.67;19.13;;;0.50;99.90;;;;;;5035884;28;20206;-65
2024/01/20 01:49:02;;;;;;;32.30;18.80;;;0.50;99.90;;;;;;5035852;28;20309;-64
2024/01/20 01:51:29;;;;;;;34.78;19.77;;;0.50;99.90;;;;;;5035712;28;20245;-65
2024/01/20 01:53:59;;;;;;;29.40;19.17;;;0.50;99.90;;;;;;5035713;28;20198;-64
2024/01/20 01:56:25;;;;;;;29.42;18.70;;;0.50;99.90;;;;;;5035532;28;20210;-64
2024/01/20 01:58:52;;;;;;;29.60;19.02;;;0.50;99.90;;;;;;5034995;28;20727;-65
2024/01/20 02:01:19;;;;;;;26.77;18.70;;;0.40;99.90;;;;;;5035446;28;20233;-65
2024/01/20 02:03:46;;;;;;;29.92;19.35;;;0.40;99.90;;;;;;5035296;28;20198;-64
2024/01/20 02:06:14;;;;;;;29.50;18.25;;;0.40;99.90;;;;;;5035359;28;20203;-65
2024/01/20 02:08:41;;;;;;;35.33;20.05;;;0.40;99.90;;;;;;5035510;28;20194;-64
2024/01/20 02:11:09;;;;;;;30.30;19.13;;;0.40;99.90;;;;;;5035034;28;20222;-66
2024/01/20 02:13:36;;;;;;;28.10;18.75;;;0.50;99.90;;;;;;5035159;28;20206;-64
2024/01/20 02:16:03;;;;;;;27.65;18.17;;;0.50;99.90;;;;;;5035221;28;20297;-65
2024/01/20 02:18:30;;;;;;;26.90;18.25;;;0.50;99.90;;;;;;5036210;28;20708;-64
2024/01/20 02:20:57;;;;;;;28.00;17.13;;;0.60;99.90;;;;;;5035137;28;20226;-65
2024/01/20 02:23:25;;;;;;;31.02;16.98;;;0.60;99.90;;;;;;5035183;28;20198;-65
2024/01/20 02:25:51;;;;;;;27.45;17.17;;;0.60;99.90;;;;;;5034869;28;20198;-65
2024/01/20 02:28:18;;;;;;;32.97;19.80;;;0.60;99.90;;;;;;5035344;28;20230;-64
2024/01/20 02:30:46;;;;;;;28.25;17.92;;;0.70;99.90;;;;;;5034677;28;20225;-64
2024/01/20 02:33:13;;;;;;;27.13;18.33;;;0.70;99.90;;;;;;5034789;28;20191;-65
2024/01/20 02:35:40;;;;;;;27.00;16.15;;;0.70;99.90;;;;;;5034848;28;20206;-65
2024/01/20 02:38:06;;;;;;;27.75;16.88;;;0.60;99.90;;;;;;5034314;28;20226;-65
2024/01/20 02:40:34;;;;;;;28.83;16.58;;;0.60;99.90;;;;;;5034977;28;20227;-66
2024/01/20 02:43:01;;;;;;;30.98;17.88;;;0.60;99.90;;;;;;5035214;28;20199;-65
2024/01/20 02:45:28;;;;;;;29.40;15.68;;;0.60;99.90;;;;;;5034873;28;20209;-64
2024/01/20 02:47:55;;;;;;;25.70;16.52;;;0.70;99.90;;;;;;5034488;28;20668;-65
2024/01/20 02:50:22;;;;;;;30.40;17.23;;;0.70;99.90;;;;;;5035087;28;20209;-64
2024/01/20 02:52:49;;;;;;;25.50;17.88;;;0.70;99.90;;;;;;5033337;28;20206;-65
2024/01/20 02:55:16;;;;;;;27.83;16.40;;;0.60;99.90;;;;;;5034141;28;20668;-64
2024/01/20 02:57:44;;;;;;;32.13;16.60;;;0.60;99.90;;;;;;5034598;28;20206;-64
2024/01/20 03:00:12;;;;;;;26.13;18.35;;;0.60;99.90;;;;;;5034622;28;20203;-65
2024/01/20 03:02:38;;;;;;;32.85;18.38;;;0.60;99.90;;;;;;5034171;28;20293;-64
2024/01/20 03:05:06;;;;;;;30.17;19.10;;;0.60;99.90;;;;;;5033879;28;20285;-65
2024/01/20 03:07:33;;;;;;;26.95;17.10;;;0.60;99.90;;;;;;5034064;28;20209;-64
2024/01/20 03:10:00;;;;;;;30.60;17.65;;;0.60;99.90;;;;;;5034076;28;20204;-64
2024/01/20 03:12:26;;;;;;;28.60;16.15;;;0.60;99.90;;;;;;5033718;28;20229;-65
2024/01/20 03:14:54;;;;;;;29.55;16.35;;;0.60;99.90;;;;;;5033252;28;20205;-64
2024/01/20 03:17:21;;;;;;;34.50;16.80;;;0.50;99.90;;;;;;5033637;28;20213;-65
2024/01/20 03:19:48;;;;;;;32.20;16.52;;;0.50;99.90;;;;;;5033234;28;20222;-65
2024/01/20 03:22:14;;;;;;;30.80;18.60;;;0.50;99.90;;;;;;5033732;28;20222;-64
2024/01/20 03:24:41;;;;;;;28.08;15.73;;;0.40;99.90;;;;;;5033865;28;20221;-64
2024/01/20 03:27:09;;;;;;;33.22;16.33;;;0.40;99.90;;;;;;5033707;28;20213;-65
2024/01/20 03:29:36;;;;;;;29.95;16.45;;;0.40;99.90;;;;;;5033602;28;20194;-64
2024/01/20 03:32:04;;;;;;;30.83;19.52;;;0.40;99.90;;;;;;5070145;22;20233;-63
2024/01/20 03:34:31;;;;;;;32.70;18.17;;;0.40;99.90;;;;;;5054630;28;20209;-66
2024/01/20 03:36:57;;;;;;;27.10;17.42;;;0.30;99.90;;;;;;5055941;28;20576;-65
2024/01/20 03:39:24;;;;;;;36.60;16.58;;;0.30;99.90;;;;;;5060031;28;20228;-63
2024/01/20 03:41:51;;;;;;;26.10;15.27;;;0.40;99.90;;;;;;5056859;28;20233;-64
2024/01/20 03:44:17;;;;;;;28.88;16.75;;;0.40;99.90;;;;;;5055094;28;20208;-64
2024/01/20 03:46:44;;;;;;;28.10;16.52;;;0.40;99.90;;;;;;5055424;28;20227;-64
2024/01/20 03:49:12;;;;;;;24.58;15.40;;;0.40;99.90;;;;;;5055605;28;20201;-63
2024/01/20 03:51:39;;;;;;;26.45;16.63;;;0.40;99.90;;;;;;5054856;28;20222;-63
2024/01/20 03:54:06;;;;;;;31.02;16.25;;;0.50;99.90;;;;;;5054523;28;20209;-63
2024/01/20 03:56:33;;;;;;;35.72;18.23;;;0.50;99.90;;;;;;5054739;28;20300;-63
2024/01/20 03:59:00;;;;;;;27.02;17.05;;;0.50;99.90;;;;;;5054517;28;20221;-63
2024/01/20 04:01:27;;;;;;;35.33;17.60;;;0.50;99.90;;;;;;5054791;28;20692;-64
2024/01/20 04:03:53;;;;;;;27.35;16.80;;;0.50;99.90;;;;;;5054296;28;20197;-64
2024/01/20 04:06:21;;;;;;;31.25;17.60;;;0.50;99.90;;;;;;5055050;28;20209;-64
2024/01/20 04:08:48;;;;;;;28.33;17.73;;;0.40;99.90;;;;;;5054630;28;20576;-64
2024/01/20 04:13:01;;;;;;;26.23;15.10;;;0.50;99.90;;;;;;5093007;28;20587;-64
2024/01/20 04:15:27;;;;;;;29.23;17.73;;;0.50;99.90;;;;;;5094179;28;20652;-64
2024/01/20 04:17:54;;;;;;;33.33;16.80;;;0.50;99.90;;;;;;5092898;28;20291;-63
2024/01/20 04:20:21;;;;;;;31.35;18.65;;;0.40;99.90;;;;;;5092189;28;20215;-63
2024/01/20 04:22:48;;;;;;;26.88;17.65;;;0.50;99.90;;;;;;5092065;28;20228;-63
2024/01/20 04:25:14;;;;;;;30.58;17.23;;;0.40;99.90;;;;;;5092484;28;20211;-63
2024/01/20 04:27:41;;;;;;;28.58;17.10;;;0.40;99.90;;;;;;5092507;28;20200;-63
2024/01/20 04:30:11;;;;;;;30.42;17.60;;;0.40;99.90;;;;;;5091324;28;20200;-64
2024/01/20 04:32:38;;;;;;;28.48;17.50;;;0.40;99.90;;;;;;5091352;28;20220;-64
2024/01/20 04:35:05;;;;;;;33.00;18.50;;;0.40;99.90;;;;;;5091487;28;20200;-64
2024/01/20 04:37:32;;;;;;;27.23;16.55;;;0.40;99.90;;;;;;5091693;28;20201;-62
2024/01/20 04:40:00;;;;;;;31.10;18.10;;;0.40;99.90;;;;;;5091559;28;20200;-64
2024/01/20 04:42:27;;;;;;;31.92;17.15;;;0.40;99.90;;;;;;5091545;28;20243;-65
2024/01/20 04:44:54;;;;;;;21.05;15.38;;;0.40;99.90;;;;;;5091584;28;20207;-64
2024/01/20 04:47:23;;;;;;;29.83;18.85;;;0.40;99.90;;;;;;5091526;28;20207;-64
2024/01/20 04:49:53;;;;;;;26.45;17.27;;;0.40;99.90;;;;;;5090945;28;20197;-63
2024/01/20 04:52:21;;;;;;;26.60;16.83;;;0.30;99.90;;;;;;5091499;28;20221;-64
2024/01/20 04:54:48;;;;;;;26.58;16.80;;;0.30;99.90;;;;;;5090910;28;20212;-64
2024/01/20 04:57:14;;;;;;;24.55;16.02;;;0.30;99.90;;;;;;5091600;28;20219;-64
2024/01/20 04:59:41;;;;;;;24.05;17.08;;;0.20;99.90;;;;;;5090887;28;20230;-64
2024/01/20 05:02:08;;;;;;;27.45;17.42;;;0.30;99.90;;;;;;5101798;22;20238;-61
2024/01/20 05:04:36;;;;;;;26.05;16.48;;;0.20;99.90;;;;;;5069281;28;20209;-61
2024/01/20 05:07:03;;;;;;;22.80;15.23;;;0.20;99.90;;;;;;5069515;28;20201;-61
2024/01/20 05:09:29;;;;;;;22.60;15.00;;;0.20;99.90;;;;;;5069395;28;20205;-61
2024/01/20 05:11:56;;;;;;;26.58;16.83;;;0.20;99.90;;;;;;5068771;28;20687;-62
2024/01/20 05:14:23;;;;;;;24.77;16.60;;;0.20;99.90;;;;;;5069048;28;20205;-61
2024/01/20 05:16:49;;;;;;;27.67;17.25;;;0.20;99.90;;;;;;5068978;28;20201;-61
2024/01/20 05:19:16;;;;;;;24.05;16.98;;;0.20;99.90;;;;;;5068637;28;20209;-61
2024/01/20 05:21:44;;;;;;;26.63;16.20;;;0.10;99.90;;;;;;5068779;28;20218;-61
2024/01/20 05:24:12;;;;;;;24.83;16.42;;;0.10;99.90;;;;;;5056546;28;20228;-61
2024/01/20 05:26:39;;;;;;;23.88;14.65;;;0.10;99.90;;;;;;5055744;28;20202;-61
2024/01/20 05:29:06;;;;;;;25.77;16.98;;;0.10;99.90;;;;;;5055693;28;20617;-61
2024/01/20 05:31:33;;;;;;;30.67;17.42;;;0.10;99.90;;;;;;5055576;28;20234;-61
2024/01/20 05:34:00;;;;;;;31.10;17.80;;;0.10;99.90;;;;;;5056238;28;20202;-61
2024/01/20 05:36:27;;;;;;;22.83;15.40;;;0.10;99.90;;;;;;5056458;28;20212;-61
2024/01/20 05:38:55;;;;;;;26.35;16.50;;;0.10;99.90;;;;;;5057562;28;20205;-61
2024/01/20 05:41:21;;;;;;;22.73;14.65;;;0.00;99.90;;;;;;5057315;28;20217;-61
2024/01/20 05:43:48;;;;;;;24.67;14.68;;;0.00;99.90;;;;;;5056635;28;20198;-61
2024/01/20 05:46:15;;;;;;;25.95;15.27;;;0.00;99.90;;;;;;5056385;28;20201;-61
2024/01/20 05:48:41;;;;;;;34.10;15.73;;;0.00;99.90;;;;;;5057416;28;20213;-62
2024/01/20 05:51:08;;;;;;;24.55;15.07;;;0.00;99.90;;;;;;5055679;28;20221;-62
2024/01/20 05:53:35;;;;;;;23.80;14.82;;;0.00;99.90;;;;;;5056047;28;20201;-62
2024/01/20 05:56:03;;;;;;;23.33;14.07;;;0.00;99.90;;;;;;5054855;28;20651;-63
2024/01/20 05:58:30;;;;;;;22.00;14.38;;;0.00;99.90;;;;;;5054998;28;20212;-63
2024/01/20 06:00:57;;;;;;;25.10;15.10;;;0.00;99.90;;;;;;5054582;28;20208;-63
2024/01/20 06:03:25;;;;;;;25.38;14.73;;;0.00;99.90;;;;;;5054940;28;20189;-63
2024/01/20 06:05:52;;;;;;;21.75;14.82;;;0.00;99.90;;;;;;5054711;28;20623;-62
2024/01/20 06:08:19;;;;;;;24.67;14.57;;;0.00;99.90;;;;;;5054881;28;20205;-63
2024/01/20 06:10:46;;;;;;;27.35;14.95;;;0.00;99.90;;;;;;5054432;28;20690;-63
2024/01/20 06:13:14;;;;;;;24.02;14.32;;;0.00;99.90;;;;;;5054588;28;20327;-63
2024/01/20 06:15:41;;;;;;;21.70;13.88;;;0.00;99.90;;;;;;5054762;28;20201;-62
2024/01/20 06:18:07;;;;;;;30.88;14.40;;;0.00;99.90;;;;;;5054805;28;20288;-62
2024/01/20 06:20:34;;;;;;;22.30;13.20;;;0.00;99.90;;;;;;5054661;28;20204;-63
2024/01/20 06:23:01;;;;;;;22.70;13.38;;;0.00;99.90;;;;;;5054281;28;20237;-63
2024/01/20 06:25:27;;;;;;;22.30;13.15;;;0.00;99.90;;;;;;5054510;28;20209;-63
2024/01/20 06:27:54;;;;;;;22.15;14.18;;;0.00;99.90;;;;;;5054711;28;20308;-62
2024/01/20 06:30:22;;;;;;;22.33;13.75;;;0.00;99.90;;;;;;5054355;28;20579;-62
2024/01/20 06:32:49;;;;;;;23.63;13.70;;;0.00;99.90;;;;;;5054172;28;20221;-62
2024/01/20 06:35:16;;;;;;;18.75;12.18;;;-0.10;99.90;;;;;;5053514;28;20198;-63
2024/01/20 06:37:42;;;;;;;20.80;15.07;;;-0.10;99.90;;;;;;5054485;28;20198;-63
2024/01/20 06:40:10;;;;;;;22.90;14.10;;;-0.10;99.90;;;;;;5054291;28;20208;-61
2024/01/20 06:42:36;;;;;;;16.27;11.40;;;0.00;99.90;;;;;;5054388;28;20312;-62
2024/01/20 06:45:04;;;;;;;22.33;13.25;;;-0.10;99.90;;;;;;5054449;28;20405;-61
2024/01/20 06:47:32;;;;;;;21.15;13.40;;;-0.10;99.90;;;;;;5054522;28;20212;-63
2024/01/20 06:49:59;;;;;;;25.45;14.45;;;0.00;99.90;;;;;;5054516;28;20300;-62
2024/01/20 06:52:29;;;;;;;26.13;14.73;;;0.00;99.90;;;;;;5054079;28;20225;-62
2024/01/20 06:54:56;;;;;;;22.52;14.30;;;-0.10;99.90;;;;;;5054542;28;20201;-62
2024/01/20 06:57:23;;;;;;;21.08;14.48;;;-0.10;99.90;;;;;;5054258;28;20208;-62
2024/01/20 06:59:49;;;;;;;19.65;13.18;;;-0.10;99.90;;;;;;5054366;28;20284;-62
2024/01/20 07:02:16;;;;;;;23.02;12.95;;;-0.10;99.90;;;;;;5055007;28;20247;-62
2024/01/20 07:04:44;;;;;;;24.83;14.32;;;-0.10;99.90;;;;;;5056573;28;20557;-63
2024/01/20 07:07:11;;;;;;;22.85;13.35;;;-0.10;99.90;;;;;;5057650;28;20574;-62
2024/01/20 07:09:40;;;;;;;19.67;12.80;;;-0.10;99.90;;;;;;5057063;28;20201;-62
2024/01/20 07:12:07;;;;;;;21.05;13.48;;;-0.10;99.90;;;;;;5056772;28;20228;-62
2024/01/20 07:14:35;;;;;;;22.67;13.13;;;-0.10;99.90;;;;;;5055841;28;20206;-62
2024/01/20 07:17:02;;;;;;;20.40;14.10;;;-0.10;99.90;;;;;;5054616;28;20201;-62
2024/01/20 07:19:29;;;;;;;17.05;12.65;;;-0.10;99.90;;;;;;5055429;28;20229;-62
2024/01/20 07:21:57;;;;;;;23.27;13.65;;;-0.10;99.90;;;;;;5053823;28;20222;-62
2024/01/20 07:24:24;;;;;;;20.90;12.98;;;-0.10;99.90;;;;;;5053844;28;20230;-62
2024/01/20 07:26:51;;;;;;;24.08;14.50;;;-0.10;99.90;;;;;;5053369;28;20201;-61
2024/01/20 07:29:18;;;;;;;22.48;14.35;;;-0.10;99.90;;;;;;5053458;28;20210;-62
2024/01/20 07:31:44;;;;;;;22.08;13.35;;;-0.10;99.90;;;;;;5053115;28;20229;-63
2024/01/20 07:34:11;;;;;;;22.30;12.95;;;-0.10;99.90;;;;;;5053125;28;20208;-62
2024/01/20 07:36:38;;;;;;;21.08;13.32;;;-0.10;99.90;;;;;;5053133;28;20214;-62
2024/01/20 07:39:06;;;;;;;22.05;15.32;;;-0.10;99.90;;;;;;5052959;28;20561;-62
2024/01/20 07:41:33;;;;;;;29.13;14.10;;;-0.10;99.90;;;;;;5052981;28;20225;-63
2024/01/20 07:44:00;;;;;;;24.05;13.85;;;-0.10;99.90;;;;;;5052661;28;20620;-63
2024/01/20 07:46:26;;;;;;;18.83;12.23;;;-0.10;99.90;;;;;;5053525;28;20223;-63
2024/01/20 07:48:53;;;;;;;27.70;15.43;;;-0.10;99.90;;;;;;5052942;28;20193;-64
2024/01/20 07:51:20;;;;;;;22.27;14.15;;;0.00;99.90;;;;;;5054221;28;20312;-62
2024/01/20 07:53:47;;;;;;;22.58;12.02;;;0.00;99.90;;;;;;5052787;28;20226;-63
2024/01/20 07:56:16;;;;;;;22.73;15.70;;;0.00;99.90;;;;;;5052974;28;20205;-62
2024/01/20 07:58:42;;;;;;;23.10;14.25;;;0.00;99.90;;;;;;5052520;28;20237;-63
2024/01/20 08:01:09;;;;;;;20.23;14.02;;;0.00;99.90;;;;;;5052361;28;20232;-62
2024/01/20 08:03:36;;;;;;;26.63;14.50;;;0.10;99.90;;;;;;5052623;28;20226;-62
2024/01/20 08:06:03;;;;;;;16.50;12.35;;;0.10;99.90;;;;;;5052765;28;20201;-63
2024/01/20 08:08:29;;;;;;;18.35;13.35;;;0.20;99.90;;;;;;5052938;28;20202;-63
2024/01/20 08:10:56;;;;;;;22.58;13.85;;;0.30;99.90;;;;;;5052863;28;20582;-63
2024/01/20 08:13:24;;;;;;;23.10;13.05;;;0.40;99.90;;;;;;5052770;28;20692;-62
2024/01/20 08:15:51;;;;;;;23.27;13.02;;;0.50;99.90;;;;;;5052979;28;20206;-63
2024/01/20 08:18:18;;;;;;;19.70;12.80;;;0.70;99.90;;;;;;5052782;28;20690;-62
2024/01/20 08:20:44;;;;;;;20.00;13.30;;;0.90;99.90;;;;;;5053973;28;20210;-63
2024/01/20 08:23:11;;;;;;;21.98;13.57;;;0.90;99.90;;;;;;5054955;28;20198;-62
2024/01/20 08:25:38;;;;;;;22.02;12.43;;;0.90;99.90;;;;;;5056776;28;20206;-62
2024/01/20 08:28:05;;;;;;;20.80;12.45;;;0.80;99.90;;;;;;5055710;28;20216;-62
2024/01/20 08:30:33;;;;;;;21.60;12.55;;;0.80;99.90;;;;;;5056795;28;20562;-62
2024/01/20 08:33:00;;;;;;;19.60;13.48;;;0.80;99.90;;;;;;5055665;28;20249;-61
2024/01/20 08:35:27;;;;;;;20.85;12.02;;;0.80;99.90;;;;;;5055084;28;20201;-62
2024/01/20 08:37:53;;;;;;;18.17;12.18;;;0.80;99.90;;;;;;5053174;28;20229;-63
2024/01/20 08:40:20;;;;;;;21.48;13.10;;;0.90;99.90;;;;;;5054474;28;20207;-62
2024/01/20 08:42:47;;;;;;;29.50;12.48;;;0.90;99.90;;;;;;5053180;28;20594;-62
2024/01/20 08:45:14;;;;;;;20.90;12.68;;;0.90;99.90;;;;;;5055036;28;20216;-62
2024/01/20 08:47:42;;;;;;;24.40;13.10;;;1.00;99.90;;;;;;5052339;28;20288;-62
2024/01/20 08:50:09;;;;;;;22.95;12.05;;;1.00;99.90;;;;;;5052587;28;20213;-62
2024/01/20 08:52:36;;;;;;;20.88;12.88;;;1.10;99.90;;;;;;5052165;28;20240;-62
2024/01/20 08:55:03;;;;;;;22.58;11.75;;;1.10;99.90;;;;;;5052131;28;20202;-62
2024/01/20 08:57:31;;;;;;;19.98;11.60;;;1.10;99.90;;;;;;5052380;28;20275;-62
2024/01/20 08:59:58;;;;;;;21.00;12.63;;;1.20;99.90;;;;;;5056163;28;20310;-62
2024/01/20 09:02:25;;;;;;;19.35;12.38;;;1.20;99.90;;;;;;5056050;28;20225;-62
2024/01/20 09:04:53;;;;;;;18.48;12.20;;;1.30;99.90;;;;;;5056334;28;20202;-62
2024/01/20 09:07:20;;;;;;;21.08;11.45;;;1.30;99.90;;;;;;5056479;28;20686;-62
2024/01/20 09:09:47;;;;;;;21.95;13.15;;;1.40;99.90;;;;;;5057350;28;20201;-62
2024/01/20 09:12:14;;;;;;;24.30;11.45;;;1.40;99.90;;;;;;5056935;28;20221;-62
2024/01/20 09:14:41;;;;;;;20.38;11.40;;;1.50;99.90;;;;;;5056167;28;20208;-62
2024/01/20 09:17:08;;;;;;;21.75;12.20;;;1.50;99.90;;;;;;5056424;28;20202;-62
2024/01/20 09:19:35;;;;;;;21.90;11.18;;;1.60;99.90;;;;;;5056432;28;20201;-62
2024/01/20 09:22:03;;;;;;;20.05;10.10;;;1.60;99.90;;;;;;5055731;28;20248;-62
2024/01/20 09:24:30;;;;;;;16.00;10.50;;;1.60;99.90;;;;;;5055519;28;20197;-62
2024/01/20 09:26:57;;;;;;;19.02;10.05;;;1.70;99.90;;;;;;5055162;28;20573;-62
2024/01/20 09:29:23;;;;;;;17.23;9.77;;;1.70;99.90;;;;;;5055245;28;20212;-62
2024/01/20 09:31:50;;;;;;;20.95;10.80;;;1.80;99.90;;;;;;5055352;28;20229;-62
2024/01/20 09:34:17;;;;;;;17.85;11.52;;;1.80;99.90;;;;;;5055376;28;20707;-62
2024/01/20 09:36:45;;;;;;;16.85;10.73;;;1.80;99.90;;;;;;5054998;28;20212;-65
2024/01/20 09:39:13;;;;;;;18.23;9.93;;;1.90;99.90;;;;;;5055196;28;20680;-62
2024/01/20 09:41:41;;;;;;;15.40;9.90;;;1.90;99.90;;;;;;5055048;28;20272;-62
2024/01/20 09:44:08;;;;;;;13.50;10.07;;;2.00;99.90;;;;;;5055245;28;20200;-62
2024/01/20 09:46:36;;;;;;;16.35;9.32;;;2.00;99.90;;;;;;5055076;28;20198;-63
2024/01/20 09:49:03;;;;;;;13.95;9.20;;;2.00;99.90;;;;;;5055256;28;20209;-62
2024/01/20 09:51:31;;;;;;;20.48;11.35;;;2.10;99.90;;;;;;5055374;28;20229;-62
2024/01/20 09:53:59;;;;;;;17.00;10.45;;;2.10;99.90;;;;;;5054874;28;20228;-62
2024/01/20 09:56:27;;;;;;;14.85;10.15;;;2.20;99.90;;;;;;5054530;28;20671;-62
2024/01/20 09:58:58;;;;;;;12.88;8.50;;;2.20;99.90;;;;;;5055226;28;20205;-62
2024/01/20 10:01:26;;;;;;;15.70;9.00;;;2.20;99.90;;;;;;5055070;28;20750;-62
2024/01/20 10:03:53;;;;;;;12.65;9.10;;;2.30;99.90;;;;;;5056373;28;20201;-61
2024/01/20 10:06:19;;;;;;;15.63;8.93;;;2.30;99.90;;;;;;5055403;28;20217;-61
2024/01/20 10:08:46;;;;;;;14.88;8.43;;;2.40;99.90;;;;;;5054617;28;20229;-62
2024/01/20 10:11:13;;;;;;;16.52;9.63;;;2.40;99.90;;;;;;5054782;28;20221;-62
2024/01/20 10:13:41;;;;;;;15.55;9.20;;;2.50;99.90;;;;;;5054813;28;20252;-62
2024/01/20 10:16:08;;;;;;;10.77;7.40;;;2.60;99.90;;;;;;5054751;28;20550;-61
2024/01/20 10:18:35;;;;;;;13.85;8.65;;;2.60;99.90;;;;;;5055216;28;20201;-61
2024/01/20 10:21:03;;;;;;;14.65;9.27;;;2.70;99.90;;;;;;5054952;28;20204;-62
2024/01/20 10:23:30;;;;;;;13.35;9.00;;;2.70;99.90;;;;;;5054218;28;20205;-62
2024/01/20 10:26:01;;;;;;;13.45;9.57;;;2.80;99.90;;;;;;5054489;28;20205;-62
2024/01/20 10:28:28;;;;;;;18.70;9.45;;;2.80;99.90;;;;;;5053791;28;20668;-62
2024/01/20 10:30:56;;;;;;;13.40;9.45;;;2.80;99.90;;;;;;5054945;28;20206;-61
2024/01/20 10:33:23;;;;;;;16.20;10.18;;;2.90;99.90;;;;;;5053779;28;20609;-62
2024/01/20 10:35:50;;;;;;;18.60;9.23;;;2.90;99.90;;;;;;5054239;28;20206;-62
2024/01/20 10:38:20;;;;;;;16.50;9.15;;;2.90;99.90;;;;;;5054039;28;20571;-62
2024/01/20 10:40:51;;;;;;;13.38;10.40;;;2.90;99.90;;;;;;5053942;28;20745;-62
2024/01/20 10:43:18;;;;;;;16.17;8.93;;;3.00;99.90;;;;;;5054328;28;20269;-62
2024/01/20 10:45:49;;;;;;;17.17;10.35;;;3.00;99.90;;;;;;5053939;28;20649;-61
2024/01/20 10:48:20;;;;;;;17.52;9.20;;;3.00;99.90;;;;;;5054749;28;20196;-61
2024/01/20 10:50:53;;;;;;;20.15;9.70;;;3.00;99.90;;;;;;5054675;28;20190;-61
2024/01/20 10:53:20;;;;;;;14.90;10.05;;;3.10;99.90;;;;;;5054291;28;20384;-61
2024/01/20 10:55:48;;;;;;;19.45;11.23;;;3.10;99.90;;;;;;5055190;28;20259;-61
2024/01/20 10:58:18;;;;;;;19.35;10.65;;;3.10;99.90;;;;;;5054784;28;20576;-61
2024/01/20 11:00:46;;;;;;;16.13;8.82;;;3.20;99.90;;;;;;5053957;28;20210;-61
2024/01/20 11:03:12;;;;;;;11.93;9.00;;;3.20;99.90;;;;;;5054096;28;20202;-61
2024/01/20 11:05:46;;;;;;;13.68;9.48;;;3.30;99.90;;;;;;5053893;28;20213;-61
2024/01/20 11:08:13;;;;;;;14.55;8.55;;;3.30;99.90;;;;;;5053924;28;20190;-60
2024/01/20 11:10:40;;;;;;;12.80;8.65;;;3.30;99.90;;;;;;5054485;28;20206;-61
2024/01/20 11:13:08;;;;;;;12.93;7.82;;;3.40;99.90;;;;;;5053180;28;20275;-62
2024/01/20 11:15:36;;;;;;;14.50;9.07;;;3.40;99.90;;;;;;5053371;28;20686;-61
2024/01/20 11:18:03;;;;;;;14.68;9.35;;;3.40;99.90;;;;;;5053718;28;20596;-61
2024/01/20 11:20:30;;;;;;;13.32;8.57;;;3.50;99.90;;;;;;5053569;28;20576;-60
2024/01/20 11:22:58;;;;;;;12.50;8.82;;;3.50;99.90;;;;;;5054890;28;20213;-60
2024/01/20 11:25:32;;;;;;;13.50;8.75;;;3.60;99.90;;;;;;5055070;28;20206;-62
2024/01/20 11:27:59;;;;;;;17.67;9.27;;;3.60;99.90;;;;;;5055568;28;20629;-62
2024/01/20 11:30:27;;;;;;;16.13;9.38;;;3.60;99.90;;;;;;5055768;28;20197;-61
2024/01/20 11:32:54;;;;;;;12.65;8.98;;;3.70;99.90;;;;;;5053332;28;20711;-60
2024/01/20 11:35:21;;;;;;;15.38;9.77;;;3.70;99.90;;;;;;5053723;28;20220;-61
2024/01/20 11:37:49;;;;;;;13.23;7.70;;;3.80;99.90;;;;;;5053265;28;20206;-62
2024/01/20 11:40:17;;;;;;;14.18;9.05;;;3.90;99.90;;;;;;5053395;28;20202;-61
2024/01/20 11:42:44;;;;;;;15.65;9.30;;;3.90;99.90;;;;;;5052634;28;20712;-61
2024/01/20 11:45:11;;;;;;;13.20;9.00;;;4.00;99.90;;;;;;5053150;28;20585;-61
2024/01/20 11:47:38;;;;;;;14.90;9.20;;;4.10;99.90;;;;;;5053046;28;20731;-62
2024/01/20 11:50:06;;;;;;;13.48;8.77;;;4.20;99.90;;;;;;5053168;28;20197;-62
2024/01/20 11:52:33;;;;;;;13.18;8.35;;;4.20;99.90;;;;;;5053410;28;20253;-62
2024/01/20 11:55:00;;;;;;;12.88;8.38;;;4.30;99.90;;;;;;5052988;28;20222;-62
2024/01/20 11:57:29;;;;;;;15.73;9.38;;;4.40;99.90;;;;;;5052693;28;20694;-62
2024/01/20 11:59:56;;;;;;;13.90;7.72;;;4.40;99.90;;;;;;5053973;28;20613;-61
2024/01/20 12:02:24;;;;;;;10.95;7.47;;;4.50;99.90;;;;;;5052787;28;20242;-62
2024/01/20 12:04:51;;;;;;;8.23;6.18;;;4.50;99.90;;;;;;5052753;28;20228;-62
2024/01/20 12:07:18;;;;;;;11.65;7.47;;;4.50;99.90;;;;;;5052901;28;20598;-62
2024/01/20 12:09:45;;;;;;;11.57;7.32;;;4.50;99.90;;;;;;5054921;28;20201;-62
2024/01/20 12:12:12;;;;;;;11.50;6.88;;;4.60;99.90;;;;;;5055938;28;20707;-62
2024/01/20 12:14:42;;;;;;;11.95;6.57;;;4.70;99.90;;;;;;5055925;28;20228;-62
2024/01/20 12:17:10;;;;;;;11.80;7.20;;;4.80;99.90;;;;;;5054122;28;20216;-62
2024/01/20 12:19:38;;;;;;;9.70;6.50;;;4.80;99.90;;;;;;5055474;28;20202;-62
2024/01/20 12:22:06;;;;;;;10.05;6.68;;;4.80;99.40;;;;;;5057384;28;20714;-62
2024/01/20 12:24:33;;;;;;;9.63;6.20;;;4.90;99.10;;;;;;5056185;28;20221;-61
2024/01/20 12:27:02;;;;;;;8.77;5.97;;;4.90;99.10;;;;;;5056932;28;20224;-61
2024/01/20 12:29:29;;;;;;;9.40;7.15;;;4.80;99.00;;;;;;5055099;28;20301;-61
2024/01/20 12:31:57;;;;;;;11.40;7.72;;;4.80;98.80;;;;;;5054386;28;20708;-61
2024/01/20 12:34:26;;;;;;;12.48;7.53;;;4.70;98.30;;;;;;5057150;28;20218;-61
2024/01/20 12:36:53;;;;;;;10.95;7.10;;;4.50;98.20;;;;;;5058097;28;20260;-61
2024/01/20 12:39:20;;;;;;;8.48;6.75;;;4.30;98.30;;;;;;5056286;28;20228;-63